Time;durP1;ratioP1;P1;durP2;ratioP2;P2;SDS_P1;SDS_P2;PMS_P1;PMS_P2;Temp;Humidity;BMP_temperature;BMP_pressure;BME280_temperature;BME280_humidity;BME280_pressure;Samples;Min_cycle;Max_cycle;Signal;HPM_P1;HPM_P2
2021/06/05 00:01:31;;;;;;;34.67;17.98;;;;;;;19.71;61.85;101249.50;5013808;58;1143144;-74
2021/06/05 00:06:37;;;;;;;32.50;16.87;;;;;;;19.52;61.73;101250.60;5003975;58;1143174;-73
2021/06/05 00:11:44;;;;;;;34.80;19.50;;;;;;;19.20;62.20;101255.72;5013925;58;1143152;-72
2021/06/05 00:16:51;;;;;;;33.28;19.32;;;;;;;19.03;62.72;101253.42;5013495;57;1143205;-74
2021/06/05 00:21:57;;;;;;;40.08;20.57;;;;;;;19.12;63.31;101252.47;5013584;58;1143368;-73
2021/06/05 00:27:03;;;;;;;41.92;20.08;;;;;;;19.24;63.52;101249.90;5013796;58;1143444;-75
2021/06/05 00:32:09;;;;;;;32.70;18.42;;;;;;;19.30;63.44;101253.77;5013986;58;1143177;-73
2021/06/05 00:37:16;;;;;;;39.25;18.50;;;;;;;19.35;63.57;101239.40;5055267;57;1143582;-76
2021/06/05 00:42:22;;;;;;;29.85;16.52;;;;;;;19.36;63.39;101230.35;5076918;57;1143349;-74
2021/06/05 00:47:28;;;;;;;28.12;15.83;;;;;;;19.35;63.23;101218.44;5077682;57;1143304;-76
2021/06/05 00:52:35;;;;;;;27.20;14.78;;;;;;;19.28;62.92;101220.40;5077362;57;1143076;-75
2021/06/05 00:57:41;;;;;;;35.58;16.37;;;;;;;19.24;62.99;101222.23;5077117;57;1143249;-75
2021/06/05 01:02:47;;;;;;;32.03;17.27;;;;;;;19.22;62.94;101216.19;5077082;57;1143098;-75
2021/06/05 01:07:57;;;;;;;28.55;15.23;;;;;;;19.18;62.89;101215.66;5077055;57;1142989;-74
2021/06/05 01:13:16;;;;;;;20.02;14.23;;;;;;;18.97;62.30;101217.84;5077168;57;1143044;-74
2021/06/05 01:18:32;;;;;;;25.95;14.00;;;;;;;18.80;62.51;101219.55;5076802;57;1143063;-73
2021/06/05 01:24:02;;;;;;;26.20;15.80;;;;;;;18.69;62.80;101206.89;5076813;57;1142968;-76
2021/06/05 01:29:27;;;;;;;32.53;17.98;;;;;;;18.52;62.82;101212.08;5076957;57;1142744;-72
2021/06/05 01:34:38;;;;;;;30.60;18.62;;;;;;;18.40;63.13;101214.64;5077023;57;1142616;-75
2021/06/05 01:39:48;;;;;;;34.20;17.60;;;;;;;18.33;63.11;101214.92;5023753;56;1142741;-73
2021/06/05 01:44:58;;;;;;;28.97;17.60;;;;;;;18.23;63.36;101216.31;5013911;58;1142693;-75
2021/06/05 01:50:09;;;;;;;52.47;22.30;;;;;;;18.20;63.47;101204.56;5013831;58;1142676;-75
2021/06/05 01:55:27;;;;;;;53.83;23.03;;;;;;;18.14;63.53;101207.02;4987559;58;1142677;-75
2021/06/05 02:00:38;;;;;;;61.73;24.65;;;;;;;17.98;63.07;101209.02;4789968;60;1143042;-74
2021/06/05 02:05:45;;;;;;;88.63;29.90;;;;;;;17.73;63.22;101204.35;4813219;60;1142697;-73
2021/06/05 02:11:06;;;;;;;77.10;27.70;;;;;;;17.62;63.43;101202.69;4857716;60;1143099;-73
2021/06/05 02:16:21;;;;;;;61.43;24.63;;;;;;;17.58;63.89;101203.97;4858032;60;1142715;-75
2021/06/05 02:21:31;;;;;;;79.77;29.30;;;;;;;17.57;64.01;101201.78;4889775;59;1143532;-75
2021/06/05 02:26:40;;;;;;;56.97;20.63;;;;;;;17.56;63.87;101201.47;4889394;59;1142705;-74
2021/06/05 02:31:47;;;;;;;36.90;17.30;;;;;;;17.52;64.18;101198.73;4889309;59;1142686;-74
2021/06/05 02:36:58;;;;;;;38.33;16.93;;;;;;;17.38;63.58;101193.02;4889393;59;1142587;-76
2021/06/05 02:42:10;;;;;;;34.03;15.40;;;;;;;17.26;63.71;101183.50;4860511;59;1143464;-73
2021/06/05 02:47:20;;;;;;;36.57;16.57;;;;;;;17.27;64.34;101190.50;4882312;59;1142892;-76
2021/06/05 02:52:32;;;;;;;42.10;16.23;;;;;;;17.18;64.04;101183.72;4889578;59;1143187;-75
2021/06/05 02:57:43;;;;;;;33.10;14.27;;;;;;;16.94;64.21;101178.03;4889451;59;1143204;-73
2021/06/05 03:02:51;;;;;;;25.53;13.50;;;;;;;16.93;64.88;101184.36;4889331;59;1143267;-75
2021/06/05 03:07:58;;;;;;;26.63;12.47;;;;;;;16.92;64.79;101180.00;4889283;59;1143056;-75
2021/06/05 03:13:07;;;;;;;21.47;10.53;;;;;;;16.85;64.67;101181.55;4889274;59;1143235;-75
2021/06/05 03:18:16;;;;;;;20.57;11.67;;;;;;;16.82;64.87;101180.00;4889351;59;1142937;-74
2021/06/05 03:23:28;;;;;;;19.83;11.47;;;;;;;16.73;65.68;101174.19;4889458;59;1143405;-74
2021/06/05 03:28:36;;;;;;;20.60;11.77;;;;;;;16.73;65.68;101174.19;4889684;59;1142661;-75
2021/06/05 03:33:43;;;;;;;23.57;11.60;;;;;;;16.59;65.82;101169.75;4889250;58;1142564;-71
2021/06/05 03:38:49;;;;;;;17.40;11.07;;;;;;;16.56;66.12;101174.03;4892679;58;1143009;-74
2021/06/05 03:43:59;;;;;;;14.97;10.33;;;;;;;16.59;65.83;101179.94;5085140;57;1143267;-73
2021/06/05 03:49:09;;;;;;;41.77;14.13;;;;;;;16.66;66.15;101177.55;5086260;57;1143193;-74
2021/06/05 03:54:17;;;;;;;34.67;12.37;;;;;;;16.63;66.36;101170.70;5086684;57;1143113;-78
2021/06/05 03:59:23;;;;;;;29.85;12.68;;;;;;;16.63;66.20;101177.86;5086973;57;1143084;-77
2021/06/05 04:04:29;;;;;;;20.68;12.58;;;;;;;16.65;66.63;101172.70;5086948;57;1143104;-80
2021/06/05 04:09:37;;;;;;;19.10;11.90;;;;;;;16.69;66.51;101174.61;5086835;57;1152274;-77
2021/06/05 04:14:44;;;;;;;22.37;13.07;;;;;;;16.70;66.47;101186.98;5086626;57;1143293;-78
2021/06/05 04:19:50;;;;;;;20.03;11.90;;;;;;;16.74;67.12;101181.22;5086983;57;1143289;-75
2021/06/05 04:24:56;;;;;;;20.80;11.73;;;;;;;16.80;67.14;101178.48;5087141;57;1143335;-75
2021/06/05 04:30:01;;;;;;;23.33;12.93;;;;;;;16.88;67.18;101170.58;5087762;57;1143272;-76
2021/06/05 04:35:09;;;;;;;23.13;11.73;;;;;;;16.93;67.46;101171.00;5087517;57;1143339;-75
2021/06/05 04:40:16;;;;;;;23.00;12.97;;;;;;;17.06;67.46;101176.87;5087515;57;1143268;-74
2021/06/05 04:45:23;;;;;;;21.50;10.83;;;;;;;17.05;67.29;101173.00;5087766;57;1143410;-77
2021/06/05 04:50:33;;;;;;;27.55;11.03;;;;;;;17.08;67.62;101174.90;5087314;57;1142860;-79
2021/06/05 04:55:39;;;;;;;20.17;11.97;;;;;;;17.15;67.58;101176.48;5087149;57;1143392;-76
2021/06/05 05:00:49;;;;;;;17.92;10.78;;;;;;;17.26;67.51;101171.47;5087147;57;1143134;-80
2021/06/05 05:06:04;;;;;;;12.93;10.13;;;;;;;17.41;67.14;101165.99;5087665;57;1143107;-76
2021/06/05 05:11:08;;;;;;;19.17;9.00;;;;;;;17.54;66.54;101159.80;5086996;57;1143074;-76
2021/06/05 05:16:15;;;;;;;11.77;7.53;;;;;;;17.74;65.18;101160.06;5087404;57;1140931;-75
2021/06/05 05:21:23;;;;;;;17.07;9.60;;;;;;;17.96;64.88;101162.83;5067584;57;1140851;-78
2021/06/05 05:26:29;;;;;;;12.58;8.35;;;;;;;18.18;64.37;101169.59;5087830;57;1141217;-76
2021/06/05 05:31:34;;;;;;;11.03;8.18;;;;;;;18.35;64.28;101174.08;5087436;57;1141255;-78
2021/06/05 05:36:42;;;;;;;14.10;9.60;;;;;;;18.54;64.30;101174.42;5087448;57;1141040;-78
2021/06/05 05:41:49;;;;;;;19.27;9.27;;;;;;;18.70;63.96;101179.10;5097921;56;1140515;-79
2021/06/05 05:46:55;;;;;;;17.96;10.10;;;;;;;18.85;62.77;101179.73;5083333;56;1140533;-80
2021/06/05 05:52:01;;;;;;;15.33;10.53;;;;;;;18.95;62.01;101172.42;5052331;57;1142592;-76
2021/06/05 05:57:08;;;;;;;17.80;10.23;;;;;;;19.11;62.51;101180.22;5050608;57;1143033;-76
2021/06/05 06:02:13;;;;;;;14.73;9.80;;;;;;;19.28;61.67;101180.17;5050514;57;1142494;-74
2021/06/05 06:07:20;;;;;;;13.97;8.20;;;;;;;19.43;62.48;101182.25;5111042;57;1140699;-73
2021/06/05 06:12:25;;;;;;;13.43;8.50;;;;;;;19.57;61.97;101189.23;5134949;56;1140693;-75
2021/06/05 06:17:32;;;;;;;14.73;8.30;;;;;;;19.71;60.99;101185.62;5134971;56;1145855;-75
2021/06/05 06:22:38;;;;;;;11.12;8.13;;;;;;;19.91;57.52;101183.83;5134431;56;1140465;-73
2021/06/05 06:27:44;;;;;;;15.20;7.10;;;;;;;20.05;56.82;101182.84;5134414;56;1140874;-75
2021/06/05 06:32:53;;;;;;;13.75;8.18;;;;;;;20.18;57.45;101190.77;5134499;56;1140597;-76
2021/06/05 06:38:01;;;;;;;6.53;5.75;;;;;;;20.32;56.57;101195.98;5134327;57;1140733;-74
2021/06/05 06:43:15;;;;;;;8.50;7.45;;;;;;;20.44;56.72;101196.56;5134519;57;1138634;-76
2021/06/05 06:48:24;;;;;;;13.54;6.90;;;;;;;20.55;56.94;101202.45;5154375;56;1138731;-75
2021/06/05 06:53:32;;;;;;;10.30;8.83;;;;;;;20.65;56.24;101198.23;5134626;56;1140643;-75
2021/06/05 06:58:38;;;;;;;24.13;9.60;;;;;;;20.82;56.51;101203.95;5123383;56;1141336;-73
2021/06/05 07:03:44;;;;;;;66.25;14.47;;;;;;;21.05;57.13;101202.77;5123695;56;1141598;-76
2021/06/05 07:08:51;;;;;;;9.13;7.50;;;;;;;21.27;56.50;101199.87;5123207;56;1142994;-74
2021/06/05 07:13:59;;;;;;;9.00;7.03;;;;;;;21.45;56.08;101192.94;5118770;56;1139097;-75
2021/06/05 07:19:07;;;;;;;12.13;7.12;;;;;;;21.56;53.29;101187.17;5123421;56;1139027;-76
2021/06/05 07:24:13;;;;;;;13.15;6.45;;;;;;;21.68;55.46;101185.80;5123708;56;1141263;-73
2021/06/05 07:29:20;;;;;;;17.82;5.97;;;;;;;21.82;55.19;101184.22;5123371;56;1141170;-76
2021/06/05 07:34:27;;;;;;;16.20;6.34;;;;;;;21.96;53.56;101181.61;5122852;56;1141318;-74
2021/06/05 07:39:34;;;;;;;16.45;8.03;;;;;;;22.14;54.74;101184.08;5122966;56;1141197;-76
2021/06/05 07:44:40;;;;;;;12.68;6.05;;;;;;;22.41;53.95;101185.39;5123549;56;1141221;-76
2021/06/05 07:49:46;;;;;;;17.25;6.17;;;;;;;22.57;53.16;101177.69;5135479;56;1140939;-75
2021/06/05 07:54:55;;;;;;;11.30;6.67;;;;;;;22.79;52.97;101172.28;5136683;56;1141255;-74
2021/06/05 08:00:02;;;;;;;9.75;5.20;;;;;;;22.93;52.24;101173.33;5136548;56;1140690;-76
2021/06/05 08:05:12;;;;;;;17.37;6.78;;;;;;;23.06;51.57;101170.03;5135721;56;1138524;-75
2021/06/05 08:10:21;;;;;;;12.03;5.67;;;;;;;23.20;51.00;101177.80;5166675;56;1140516;-75
2021/06/05 08:15:34;;;;;;;10.48;5.55;;;;;;;23.30;49.21;101177.00;5168655;56;1140751;-73
2021/06/05 08:20:42;;;;;;;;;;;;;;;23.48;47.88;101180.17;5171985;56;1141105;-75
2021/06/05 08:25:49;;;;;;;8.63;5.30;;;;;;;23.58;47.67;101173.16;5180876;56;975790;-75
2021/06/05 08:31:00;;;;;;;9.30;6.45;;;;;;;23.66;45.93;101169.86;5168244;56;1136886;-76
2021/06/05 08:36:09;;;;;;;10.82;4.65;;;;;;;23.77;46.13;101171.23;5168404;56;1139070;-77
2021/06/05 08:41:31;;;;;;;7.50;4.33;;;;;;;23.83;45.85;101161.03;5168153;56;1141197;-76
2021/06/05 08:46:47;;;;;;;25.77;5.03;;;;;;;24.10;46.21;101149.48;5124760;56;1139182;-74
2021/06/05 08:52:16;;;;;;;16.75;8.35;;;;;;;24.10;46.21;101149.48;5168149;56;1140633;-73
2021/06/05 08:57:45;;;;;;;6.76;5.34;;;;;;;24.32;43.92;101150.85;5060352;56;1140591;-75
2021/06/05 09:02:56;;;;;;;11.00;4.22;;;;;;;24.43;44.92;101140.89;5083158;57;1138427;-73
2021/06/05 09:08:02;;;;;;;5.95;3.72;;;;;;;24.60;45.54;101141.42;5083602;56;1140721;-76
2021/06/05 09:13:08;;;;;;;14.55;3.62;;;;;;;24.81;42.96;101140.88;5083539;57;1138851;-76
2021/06/05 09:18:15;;;;;;;17.45;6.20;;;;;;;24.92;44.36;101132.73;5088028;56;1140464;-76
2021/06/05 09:23:39;;;;;;;16.97;3.90;;;;;;;25.00;43.75;101136.69;5083421;56;1140844;-76
2021/06/05 09:28:45;;;;;;;7.00;3.30;;;;;;;25.07;43.26;101145.66;5083419;57;1141063;-75
2021/06/05 09:33:51;;;;;;;5.42;3.50;;;;;;;25.18;38.89;101135.66;5083599;56;1139099;-73
2021/06/05 09:39:04;;;;;;;9.20;3.00;;;;;;;25.18;42.10;101136.17;5084001;57;1139084;-75
2021/06/05 09:44:23;;;;;;;4.62;3.55;;;;;;;25.34;42.86;101137.20;5084618;57;1139249;-73
2021/06/05 09:49:40;;;;;;;8.43;3.30;;;;;;;25.57;40.78;101138.23;5099225;56;1138867;-73
2021/06/05 09:54:50;;;;;;;9.95;3.12;;;;;;;25.71;41.34;101133.73;5073184;57;1138941;-74
2021/06/05 10:00:06;;;;;;;6.65;3.22;;;;;;;25.87;42.00;101138.27;5073226;57;1138913;-76
2021/06/05 10:05:39;;;;;;;13.98;8.65;;;;;;;26.07;41.98;101139.69;5069536;57;1138888;-74
2021/06/05 10:10:49;;;;;;;11.73;7.13;;;;;;;26.25;40.40;101135.02;5073735;57;1140902;-71
2021/06/05 10:15:59;;;;;;;5.33;4.75;;;;;;;26.31;39.38;101135.56;5073401;57;1141100;-74
2021/06/05 10:21:19;;;;;;;9.28;3.58;;;;;;;26.40;39.48;101122.66;5068191;57;1138914;-78
2021/06/05 10:26:38;;;;;;;21.10;3.05;;;;;;;26.49;39.99;101126.82;5072721;57;1139209;-75
2021/06/05 10:31:45;;;;;;;5.67;3.00;;;;;;;26.65;39.79;101128.28;5114133;56;1141352;-77
2021/06/05 10:36:54;;;;;;;8.85;2.92;;;;;;;26.69;36.98;101125.47;5113991;57;1138472;-73
2021/06/05 10:42:08;;;;;;;6.37;2.77;;;;;;;26.68;36.77;101121.92;5114113;57;1138517;-74
2021/06/05 10:47:28;;;;;;;5.12;3.55;;;;;;;26.85;39.26;101125.88;5106566;57;1138912;-75
2021/06/05 10:52:42;;;;;;;9.50;2.85;;;;;;;26.54;37.55;101129.23;5026009;57;1138570;-74
2021/06/05 10:58:11;;;;;;;5.70;2.98;;;;;;;26.19;36.79;101133.96;4990973;57;1138640;-75
2021/06/05 11:03:30;;;;;;;11.20;3.05;;;;;;;26.28;38.20;101127.80;5002929;57;1138823;-73
2021/06/05 11:08:52;;;;;;;15.03;3.00;;;;;;;26.52;39.04;101129.13;5039631;56;1140974;-76
2021/06/05 11:13:57;;;;;;;;;;;;;;;26.52;38.23;101124.53;5030788;56;1140736;-76
2021/06/05 11:19:13;;;;;;;3.60;3.30;;;;;;;26.69;38.12;101125.47;5031059;57;976079;-74
2021/06/05 11:24:23;;;;;;;3.05;2.85;;;;;;;26.74;36.25;101118.34;4993666;57;1136367;-76
2021/06/05 11:29:39;;;;;;;9.78;3.35;;;;;;;26.92;37.51;101110.91;4994847;57;1138535;-76
2021/06/05 11:34:52;;;;;;;5.87;2.83;;;;;;;27.05;35.53;101104.13;4986443;58;1138618;-76
2021/06/05 11:40:05;;;;;;;4.60;2.30;;;;;;;26.99;36.01;101110.42;4986303;58;1138639;-75
2021/06/05 11:45:31;;;;;;;23.15;3.80;;;;;;;26.93;35.16;101110.73;4986345;58;1138693;-73
2021/06/05 11:50:37;;;;;;;11.05;3.30;;;;;;;26.86;36.09;101112.61;4986501;58;1140910;-73
2021/06/05 11:55:55;;;;;;;7.60;4.10;;;;;;;26.98;36.54;101107.39;4994191;58;1140975;-74
2021/06/05 12:01:25;;;;;;;5.87;2.58;;;;;;;27.00;37.29;101099.04;4995338;58;1138832;-77
2021/06/05 12:06:41;;;;;;;6.00;3.65;;;;;;;27.12;33.93;101100.05;4996012;57;1139029;-77
2021/06/05 12:11:57;;;;;;;6.20;2.80;;;;;;;27.18;33.49;101094.61;4995703;58;1138418;-74
2021/06/05 12:17:05;;;;;;;3.25;2.35;;;;;;;27.26;33.64;101086.20;4995780;58;1138491;-75
2021/06/05 12:22:22;;;;;;;50.92;4.70;;;;;;;27.28;33.65;101080.05;4995795;58;1138499;-77
2021/06/05 12:27:38;;;;;;;9.78;2.50;;;;;;;27.41;35.39;101087.30;4989767;58;1141280;-74
2021/06/05 12:32:57;;;;;;;6.72;2.87;;;;;;;27.52;34.93;101086.61;4998254;57;1138533;-76
2021/06/05 12:38:07;;;;;;;12.95;3.12;;;;;;;27.45;33.85;101084.98;5020593;57;1138664;-74
2021/06/05 12:43:17;;;;;;;3.87;3.37;;;;;;;27.56;34.87;101070.22;5039051;57;1140600;-75
2021/06/05 12:48:23;;;;;;;5.97;3.08;;;;;;;27.63;35.46;101068.84;5078485;57;1138434;-75
2021/06/05 12:53:30;;;;;;;6.17;3.00;;;;;;;27.74;34.07;101068.14;5069717;57;1138610;-74
2021/06/05 12:58:40;;;;;;;4.92;3.83;;;;;;;27.80;36.06;101063.73;5036239;57;1138973;-73
2021/06/05 13:03:47;;;;;;;3.80;2.20;;;;;;;27.93;34.83;101058.20;5090362;57;1138688;-73
2021/06/05 13:09:21;;;;;;;6.20;2.70;;;;;;;28.04;34.23;101054.77;5115952;57;1138426;-73
2021/06/05 13:14:38;;;;;;;5.62;2.35;;;;;;;28.09;33.22;101045.42;5116192;57;1138398;-73
2021/06/05 13:19:45;;;;;;;5.20;2.43;;;;;;;28.31;34.79;101046.72;5115965;57;1139171;-74
2021/06/05 13:25:13;;;;;;;2.67;2.47;;;;;;;28.30;33.24;101042.86;5115899;57;1138911;-74
2021/06/05 13:30:36;;;;;;;2.45;2.35;;;;;;;28.09;33.82;101035.91;5115911;57;1139098;-75
2021/06/05 13:35:46;;;;;;;;;;;;;;;28.03;34.09;101037.30;5118948;57;1138905;-75
2021/06/05 13:40:58;;;;;;;8.08;3.05;;;;;;;27.96;34.85;101042.25;5127816;57;976287;-75
2021/06/05 13:46:04;;;;;;;17.50;2.90;;;;;;;27.81;34.93;101030.02;5115802;57;1136721;-73
2021/06/05 13:51:10;;;;;;;10.70;3.47;;;;;;;27.62;34.79;101031.32;5115515;57;1141282;-73
2021/06/05 13:56:21;;;;;;;35.13;3.40;;;;;;;27.66;34.95;101018.94;5115262;57;1141261;-74
2021/06/05 14:01:32;;;;;;;5.20;2.80;;;;;;;27.81;35.53;101016.44;5115732;57;1141185;-74
2021/06/05 14:06:37;;;;;;;14.90;2.80;;;;;;;27.91;35.14;101010.00;5116441;57;1139199;-74
2021/06/05 14:11:44;;;;;;;9.35;3.02;;;;;;;28.06;35.04;101004.23;5115528;57;1141129;-75
2021/06/05 14:16:50;;;;;;;6.80;6.08;;;;;;;28.20;33.83;101004.45;5116098;57;1139120;-75
2021/06/05 14:21:56;;;;;;;4.15;2.40;;;;;;;28.09;33.47;101005.99;5115843;57;1138936;-75
2021/06/05 14:27:01;;;;;;;4.65;2.75;;;;;;;28.16;34.88;101001.31;5115825;57;1138917;-74
2021/06/05 14:32:09;;;;;;;7.05;2.45;;;;;;;28.14;33.73;101008.86;5115992;57;1139031;-75
2021/06/05 14:37:14;;;;;;;3.70;2.27;;;;;;;27.97;33.93;101005.02;5115555;57;1138999;-74
2021/06/05 14:42:21;;;;;;;12.43;2.75;;;;;;;27.99;34.50;101011.08;5115530;57;1138821;-75
2021/06/05 14:47:30;;;;;;;8.30;3.00;;;;;;;28.14;34.84;100994.42;5069490;57;1141217;-75
2021/06/05 14:52:35;;;;;;;14.53;2.47;;;;;;;28.21;33.32;100997.97;5070442;56;1139181;-75
2021/06/05 14:57:41;;;;;;;7.20;3.40;;;;;;;27.98;31.87;100998.53;4999891;57;1141505;-75
2021/06/05 15:02:47;;;;;;;30.05;15.00;;;;;;;27.74;32.65;100993.39;5121997;56;1139029;-73
2021/06/05 15:07:54;;;;;;;14.05;12.58;;;;;;;27.62;32.68;100998.70;5101815;56;1143169;-74
2021/06/05 15:13:00;;;;;;;2.37;2.08;;;;;;;27.66;32.36;100991.76;5083355;57;1143373;-74
2021/06/05 15:18:12;;;;;;;6.78;2.33;;;;;;;27.79;32.93;100984.59;5083879;57;1138891;-76
2021/06/05 15:23:19;;;;;;;11.55;3.30;;;;;;;27.74;32.43;100977.61;5083877;57;1139000;-76
2021/06/05 15:28:25;;;;;;;5.40;2.22;;;;;;;27.72;33.10;100976.99;5039759;57;1141172;-75
2021/06/05 15:33:35;;;;;;;4.60;2.42;;;;;;;27.65;33.04;100982.50;5083634;57;1138655;-75
2021/06/05 15:38:41;;;;;;;4.10;2.02;;;;;;;27.64;32.18;100977.59;5084082;57;1138570;-75
2021/06/05 15:43:48;;;;;;;2.05;1.75;;;;;;;27.65;31.09;100969.70;5083176;57;1138567;-74
2021/06/05 15:48:55;;;;;;;3.15;1.90;;;;;;;27.69;32.78;100975.55;5088066;56;1139111;-75
2021/06/05 15:54:04;;;;;;;11.63;2.65;;;;;;;27.58;31.38;100973.54;5000084;58;1139100;-75
2021/06/05 15:59:12;;;;;;;8.18;1.80;;;;;;;27.54;33.27;100970.39;5057685;57;1141013;-74
2021/06/05 16:04:22;;;;;;;5.22;3.37;;;;;;;27.64;31.86;100968.07;4884606;59;1138986;-75
2021/06/05 16:09:27;;;;;;;9.50;3.42;;;;;;;27.70;31.37;100969.58;4884582;59;1138997;-74
2021/06/05 16:14:34;;;;;;;1.92;1.72;;;;;;;27.63;30.46;100962.86;4884971;59;1139182;-76
2021/06/05 16:19:39;;;;;;;10.53;2.10;;;;;;;27.64;30.97;100964.00;4885474;59;1138873;-73
2021/06/05 16:24:45;;;;;;;3.15;2.08;;;;;;;27.56;29.93;100960.66;4885364;59;1141136;-76
2021/06/05 16:29:52;;;;;;;3.65;1.87;;;;;;;27.41;30.76;100970.48;4884619;59;1139108;-72
2021/06/05 16:34:58;;;;;;;5.20;2.30;;;;;;;27.27;31.59;100966.17;4885324;59;1138648;-76
2021/06/05 16:40:06;;;;;;;9.78;2.98;;;;;;;27.20;31.60;100967.55;4884961;59;1138379;-75
2021/06/05 16:45:16;;;;;;;1.95;1.75;;;;;;;27.10;31.79;100973.16;4885121;59;1139170;-75
2021/06/05 16:50:27;;;;;;;12.43;2.35;;;;;;;27.06;32.24;100974.62;4885187;59;1138607;-75
2021/06/05 16:55:37;;;;;;;5.12;2.56;;;;;;;27.10;32.80;100976.70;4901655;59;1140512;-74
2021/06/05 17:00:53;;;;;;;2.10;1.90;;;;;;;27.10;32.26;100982.66;4976724;58;1138828;-79
2021/06/05 17:06:14;;;;;;;22.35;5.40;;;;;;;27.01;32.16;100975.82;4976209;58;1138817;-77
2021/06/05 17:11:22;;;;;;;4.67;2.60;;;;;;;26.74;32.25;100979.94;4893959;59;1140715;-78
2021/06/05 17:16:32;;;;;;;56.55;4.50;;;;;;;26.74;32.25;100979.94;4889089;59;1138740;-79
2021/06/05 17:21:38;;;;;;;11.08;3.02;;;;;;;26.58;33.05;100982.59;4882113;59;1140690;-78
2021/06/05 17:26:45;;;;;;;13.63;2.70;;;;;;;26.46;33.48;100984.30;4885208;59;1141100;-77
2021/06/05 17:31:51;;;;;;;4.83;1.92;;;;;;;26.45;33.56;100984.50;4885081;59;1141466;-76
2021/06/05 17:36:57;;;;;;;20.17;2.77;;;;;;;26.45;33.41;100976.36;4885260;59;1139414;-77
2021/06/05 17:42:05;;;;;;;4.03;1.90;;;;;;;26.38;33.75;100980.98;4884748;59;1141186;-77
2021/06/05 17:47:10;;;;;;;10.45;2.27;;;;;;;26.28;34.49;100975.94;4885083;59;1138888;-76
2021/06/05 17:52:17;;;;;;;4.47;2.35;;;;;;;26.15;34.67;100978.67;4884738;59;1141076;-76
2021/06/05 17:57:23;;;;;;;7.65;2.33;;;;;;;26.02;35.09;100989.52;4885019;59;1138961;-77
2021/06/05 18:02:30;;;;;;;8.38;2.30;;;;;;;25.79;35.02;100994.84;4881213;59;1138955;-75
2021/06/05 18:07:36;;;;;;;5.58;2.42;;;;;;;25.62;35.67;100997.62;4973715;58;1139042;-76
2021/06/05 18:12:41;;;;;;;20.10;3.52;;;;;;;25.39;35.72;100999.82;4987613;57;1138960;-75
2021/06/05 18:17:49;;;;;;;4.30;2.45;;;;;;;25.29;36.28;101002.09;4969642;58;1141270;-76
2021/06/05 18:22:59;;;;;;;10.90;3.05;;;;;;;25.23;36.58;101009.14;4969908;58;1139180;-75
2021/06/05 18:28:07;;;;;;;4.95;2.70;;;;;;;25.16;36.77;101019.13;4969614;58;1141245;-75
2021/06/05 18:33:17;;;;;;;11.15;2.83;;;;;;;25.02;37.13;101012.83;4835121;60;1139192;-75
2021/06/05 18:38:28;;;;;;;14.73;4.70;;;;;;;24.91;37.23;101025.52;4969527;58;1141296;-74
2021/06/05 18:43:36;;;;;;;13.30;3.40;;;;;;;24.85;37.53;101029.04;4969623;58;1141182;-76
2021/06/05 18:48:46;;;;;;;15.23;3.12;;;;;;;24.73;37.90;101032.83;4835235;60;1141010;-74
2021/06/05 18:53:52;;;;;;;31.57;4.53;;;;;;;24.59;38.47;101031.59;4969687;58;1141027;-76
2021/06/05 18:58:59;;;;;;;20.82;3.85;;;;;;;24.53;38.87;101041.33;4969703;58;1141385;-75
2021/06/05 19:04:08;;;;;;;53.35;6.33;;;;;;;24.44;39.05;101045.22;4998030;57;1140953;-74
2021/06/05 19:09:19;;;;;;;26.45;5.08;;;;;;;24.35;39.45;101051.27;5026106;57;1141089;-74
2021/06/05 19:14:29;;;;;;;44.18;4.25;;;;;;;24.33;39.82;101055.20;5034083;57;1140850;-74
2021/06/05 19:19:36;;;;;;;132.70;9.68;;;;;;;24.31;39.88;101057.26;5036192;57;1141375;-76
2021/06/05 19:24:43;;;;;;;35.13;6.12;;;;;;;24.29;39.99;101054.75;5061468;57;1143310;-74
2021/06/05 19:29:49;;;;;;;28.73;4.80;;;;;;;24.25;40.13;101064.30;5091071;57;1141295;-75
2021/06/05 19:34:55;;;;;;;14.80;3.58;;;;;;;24.21;40.44;101064.33;5036708;57;1140944;-76
2021/06/05 19:40:01;;;;;;;17.25;4.30;;;;;;;24.15;40.57;101074.04;5044356;57;1140546;-73
2021/06/05 19:45:10;;;;;;;155.30;15.28;;;;;;;24.04;40.96;101081.84;5024368;57;1141164;-74
2021/06/05 19:50:16;;;;;;;28.10;7.33;;;;;;;23.65;41.22;101085.81;5012530;57;1145127;-75
2021/06/05 19:55:24;;;;;;;31.05;5.30;;;;;;;23.38;42.10;101088.66;5061970;57;1140642;-74
2021/06/05 20:00:35;;;;;;;27.70;5.17;;;;;;;23.19;42.62;101093.30;5038651;57;1140842;-74
2021/06/05 20:05:41;;;;;;;;;;;;;;;23.00;43.12;101096.05;5020573;57;1140588;-73
2021/06/05 20:10:47;;;;;;;39.50;6.87;;;;;;;22.88;43.82;101104.28;5020223;57;976083;-75
2021/06/05 20:15:58;;;;;;;36.35;5.83;;;;;;;22.63;44.05;101100.94;5007370;57;1138614;-76
2021/06/05 20:21:05;;;;;;;26.23;6.70;;;;;;;22.60;44.51;101097.80;4985218;57;1141235;-73
2021/06/05 20:26:14;;;;;;;38.45;8.88;;;;;;;22.56;44.52;101104.56;5008129;58;1140461;-73
2021/06/05 20:31:21;;;;;;;41.68;10.15;;;;;;;22.47;44.51;101106.48;5007507;58;1140702;-75
2021/06/05 20:36:28;;;;;;;21.42;9.23;;;;;;;22.35;44.51;101112.83;5007357;58;1142875;-76
2021/06/05 20:41:35;;;;;;;13.68;6.28;;;;;;;22.22;44.71;101111.76;5007380;58;1141054;-74
2021/06/05 20:46:45;;;;;;;18.95;5.85;;;;;;;21.96;44.91;101110.23;5007472;58;1141180;-76
2021/06/05 20:51:55;;;;;;;29.85;5.12;;;;;;;21.71;45.52;101108.69;5007695;58;1141135;-74
2021/06/05 20:57:03;;;;;;;6.58;4.30;;;;;;;21.47;46.45;101113.70;5007382;58;1140925;-74
2021/06/05 21:02:09;;;;;;;7.83;4.70;;;;;;;21.30;47.36;101113.44;5007926;58;1138884;-74
2021/06/05 21:07:17;;;;;;;11.85;5.62;;;;;;;21.23;48.13;101126.77;5008288;58;1139268;-74
2021/06/05 21:12:22;;;;;;;12.75;5.15;;;;;;;21.25;48.45;101127.41;5007980;58;1141264;-74
2021/06/05 21:17:28;;;;;;;16.48;4.80;;;;;;;21.21;48.36;101130.13;5007778;58;1141013;-74
2021/06/05 21:22:35;;;;;;;18.85;4.58;;;;;;;20.99;48.62;101134.35;5007493;58;1141073;-73
2021/06/05 21:27:41;;;;;;;18.57;5.12;;;;;;;20.85;49.20;101135.05;5008135;58;1141304;-74
2021/06/05 21:32:47;;;;;;;11.35;5.97;;;;;;;20.84;49.45;101138.75;5007968;58;1141008;-74
2021/06/05 21:37:53;;;;;;;10.37;4.60;;;;;;;20.83;49.69;101135.72;5007911;58;1140976;-73
2021/06/05 21:43:01;;;;;;;12.00;4.87;;;;;;;20.84;49.87;101144.12;5008084;58;1141276;-73
2021/06/05 21:48:16;;;;;;;7.87;4.22;;;;;;;20.80;50.06;101141.44;5007882;58;1141036;-74
2021/06/05 21:53:22;;;;;;;15.95;6.95;;;;;;;20.80;50.48;101137.91;5008846;58;1138878;-73
2021/06/05 21:58:30;;;;;;;15.95;9.53;;;;;;;20.71;50.58;101141.13;5008626;58;1141231;-73
2021/06/05 22:03:49;;;;;;;17.40;8.88;;;;;;;20.44;50.42;101148.20;5008827;58;1141468;-74
2021/06/05 22:08:57;;;;;;;10.53;5.20;;;;;;;20.12;50.87;101151.66;5008204;57;1141398;-75
2021/06/05 22:14:08;;;;;;;6.72;4.37;;;;;;;19.89;51.32;101157.64;5008890;58;1140998;-74
2021/06/05 22:19:15;;;;;;;9.93;4.80;;;;;;;19.66;52.01;101144.50;5008398;58;1139173;-75
2021/06/05 22:24:21;;;;;;;5.42;4.08;;;;;;;19.44;52.24;101149.06;5008635;58;1138978;-74
2021/06/05 22:29:28;;;;;;;5.25;4.28;;;;;;;19.21;52.79;101140.75;5008787;58;1139106;-76
2021/06/05 22:34:34;;;;;;;9.30;4.80;;;;;;;18.97;53.28;101138.25;5009307;58;1138985;-75
2021/06/05 22:39:41;;;;;;;13.43;3.87;;;;;;;18.94;53.43;101136.41;5020875;58;1138909;-75
2021/06/05 22:44:47;;;;;;;8.50;4.77;;;;;;;18.83;53.17;101129.95;4993708;58;1140994;-75
2021/06/05 22:49:52;;;;;;;8.77;4.27;;;;;;;18.69;53.30;101127.84;5008887;58;1138939;-76
2021/06/05 22:54:59;;;;;;;9.00;4.22;;;;;;;18.70;53.35;101124.17;5009109;58;1138958;-75
2021/06/05 23:00:13;;;;;;;10.45;5.47;;;;;;;18.79;53.19;101126.73;5008576;58;1138423;-76
2021/06/05 23:05:19;;;;;;;10.98;5.97;;;;;;;18.85;53.03;101130.14;5008380;58;1141274;-75
2021/06/05 23:10:25;;;;;;;12.93;7.50;;;;;;;18.86;53.01;101121.61;5018616;57;1140510;-73
2021/06/05 23:15:31;;;;;;;14.15;7.40;;;;;;;18.93;53.09;101122.17;5062763;57;1140432;-74